Time;durP1;ratioP1;P1;durP2;ratioP2;P2;SDS_P1;SDS_P2;PMS_P1;PMS_P2;Temp;Humidity;BMP_temperature;BMP_pressure;BME280_temperature;BME280_humidity;BME280_pressure;Samples;Min_cycle;Max_cycle;Signal;HPM_P1;HPM_P2
2021/07/04 00:01:37;;;;;;;6.27;5.87;;;30.30;62.40;;;;;;5083112;28;20453;-25
2021/07/04 00:04:09;;;;;;;6.60;6.00;;;30.30;64.30;;;;;;5083495;28;20445;-28
2021/07/04 00:06:42;;;;;;;6.73;6.00;;;30.20;67.00;;;;;;5083443;28;20448;-27
2021/07/04 00:09:13;;;;;;;7.10;6.50;;;30.30;66.90;;;;;;5083068;28;20447;-27
2021/07/04 00:11:44;;;;;;;6.20;5.80;;;30.20;63.10;;;;;;5081732;28;20448;-27
2021/07/04 00:14:17;;;;;;;6.17;5.70;;;30.20;65.00;;;;;;5083495;28;20452;-24
2021/07/04 00:16:48;;;;;;;6.33;5.90;;;30.10;62.90;;;;;;5082818;28;20490;-28
2021/07/04 00:19:19;;;;;;;6.00;5.60;;;30.10;62.90;;;;;;5043054;28;20482;-27
2021/07/04 00:21:56;;;;;;;5.93;5.53;;;30.10;63.20;;;;;;5041964;28;20477;-28
2021/07/04 00:24:29;;;;;;;5.83;5.43;;;30.00;61.40;;;;;;5043199;28;20450;-30
2021/07/04 00:27:02;;;;;;;6.30;5.90;;;30.00;59.70;;;;;;5041929;28;20547;-26
2021/07/04 00:29:40;;;;;;;6.40;6.00;;;30.00;60.00;;;;;;5043347;28;20603;-27
2021/07/04 00:32:11;;;;;;;6.77;6.27;;;29.90;61.60;;;;;;5042641;28;20451;-26
2021/07/04 00:34:42;;;;;;;6.57;5.97;;;29.90;63.20;;;;;;5050222;28;20464;-27
2021/07/04 00:37:13;;;;;;;6.80;6.40;;;29.70;63.80;;;;;;5062611;28;20512;-26
2021/07/04 00:39:47;;;;;;;7.00;6.40;;;29.60;66.40;;;;;;5062923;28;20614;-28
2021/07/04 00:42:18;;;;;;;6.63;6.13;;;29.60;65.40;;;;;;5061362;28;20449;-25
2021/07/04 00:44:50;;;;;;;7.17;6.50;;;29.60;66.80;;;;;;5062776;28;20503;-29
2021/07/04 00:47:22;;;;;;;7.00;6.50;;;29.50;66.40;;;;;;5062320;28;20457;-26
2021/07/04 00:49:55;;;;;;;6.50;6.00;;;29.50;65.60;;;;;;5062806;28;20428;-26
2021/07/04 00:52:27;;;;;;;6.53;6.03;;;29.50;64.50;;;;;;5061913;28;20582;-27
2021/07/04 00:54:58;;;;;;;5.93;5.47;;;29.50;62.50;;;;;;5062549;28;20479;-25
2021/07/04 00:57:30;;;;;;;6.03;5.53;;;29.40;58.90;;;;;;5061620;28;20487;-28
2021/07/04 01:00:03;;;;;;;5.97;5.57;;;29.30;58.40;;;;;;5062834;28;20555;-28
2021/07/04 01:02:33;;;;;;;6.67;6.10;;;29.30;59.60;;;;;;5062138;28;20455;-29
2021/07/04 01:05:07;;;;;;;6.67;5.97;;;29.30;61.80;;;;;;5065477;28;20432;-25
2021/07/04 01:07:41;;;;;;;6.57;6.10;;;29.30;63.00;;;;;;5066245;28;20426;-26
2021/07/04 01:10:15;;;;;;;6.20;5.70;;;29.20;62.30;;;;;;5066741;28;20460;-26
2021/07/04 01:12:50;;;;;;;6.57;5.93;;;29.10;60.50;;;;;;5065690;28;20482;-28
2021/07/04 01:15:25;;;;;;;6.97;6.47;;;29.00;61.30;;;;;;5066188;28;20520;-27
2021/07/04 01:17:57;;;;;;;7.50;6.90;;;29.00;62.90;;;;;;5065734;28;20480;-25
2021/07/04 01:20:39;;;;;;;8.20;7.50;;;28.90;65.20;;;;;;5065760;28;20951;-26
2021/07/04 01:23:13;;;;;;;6.70;6.20;;;28.90;65.10;;;;;;5065861;28;20474;-27
2021/07/04 01:25:49;;;;;;;8.33;7.57;;;28.80;65.10;;;;;;5065572;28;20439;-28
2021/07/04 01:28:22;;;;;;;8.30;7.60;;;28.70;65.20;;;;;;5065942;28;20461;-27
2021/07/04 01:30:56;;;;;;;7.43;6.83;;;28.70;67.10;;;;;;5066079;28;20445;-27
2021/07/04 01:33:28;;;;;;;7.10;6.60;;;28.70;68.00;;;;;;5065901;28;20454;-28
2021/07/04 01:36:16;;;;;;;7.80;7.20;;;28.60;68.70;;;;;;5065525;28;21301;-29
2021/07/04 01:38:48;;;;;;;8.67;7.97;;;28.50;69.70;;;;;;5065866;28;20472;-25
2021/07/04 01:41:19;;;;;;;7.93;7.33;;;28.50;67.90;;;;;;5064907;28;20494;-25
2021/07/04 01:43:50;;;;;;;7.73;7.20;;;28.50;68.10;;;;;;5066030;28;20452;-26
2021/07/04 01:46:23;;;;;;;8.27;7.67;;;28.40;69.20;;;;;;5065481;28;20511;-26
2021/07/04 01:48:57;;;;;;;8.17;7.57;;;28.40;70.60;;;;;;5065652;28;20447;-25
2021/07/04 01:51:28;;;;;;;7.87;7.27;;;28.40;71.90;;;;;;5064949;28;20451;-23
2021/07/04 01:54:01;;;;;;;9.40;8.70;;;28.30;73.80;;;;;;5065158;28;20500;-25
2021/07/04 01:56:32;;;;;;;9.93;9.10;;;28.30;75.10;;;;;;5064826;28;20456;-31
2021/07/04 01:59:03;;;;;;;9.03;8.37;;;28.20;75.70;;;;;;5065964;28;20434;-25
2021/07/04 02:01:36;;;;;;;8.40;7.70;;;28.20;75.50;;;;;;5064935;28;20562;-27
2021/07/04 02:04:07;;;;;;;8.60;8.00;;;28.10;76.50;;;;;;5065366;28;20498;-30
2021/07/04 02:06:38;;;;;;;9.87;9.17;;;28.00;77.40;;;;;;5061035;28;20482;-25
2021/07/04 02:09:11;;;;;;;8.63;7.83;;;28.00;77.70;;;;;;5045377;28;20875;-25
2021/07/04 02:11:45;;;;;;;8.20;7.60;;;28.00;78.40;;;;;;5044761;28;20506;-25
2021/07/04 02:14:19;;;;;;;9.83;9.03;;;28.00;78.70;;;;;;5045162;28;20549;-26
2021/07/04 02:16:50;;;;;;;9.40;8.70;;;27.90;78.60;;;;;;5043730;28;20513;-26
2021/07/04 02:19:21;;;;;;;9.03;8.33;;;27.90;79.60;;;;;;5044978;28;20473;-25
2021/07/04 02:21:53;;;;;;;10.40;9.50;;;27.70;80.80;;;;;;5044470;28;20498;-26
2021/07/04 02:24:29;;;;;;;9.70;8.80;;;27.70;81.10;;;;;;5044719;28;20457;-28
2021/07/04 02:27:01;;;;;;;9.40;8.47;;;27.70;81.50;;;;;;5043881;28;20502;-31
2021/07/04 02:29:34;;;;;;;10.23;9.33;;;27.70;82.00;;;;;;5045440;28;20559;-26
2021/07/04 02:32:06;;;;;;;10.30;9.50;;;27.70;82.60;;;;;;5044411;28;20523;-25
2021/07/04 02:34:37;;;;;;;10.70;9.90;;;27.70;83.20;;;;;;5044602;28;20529;-25
2021/07/04 02:37:08;;;;;;;10.00;9.20;;;27.60;83.40;;;;;;5044122;28;20454;-26
2021/07/04 02:39:41;;;;;;;11.30;10.30;;;27.60;84.30;;;;;;5044585;28;20497;-27
2021/07/04 02:42:12;;;;;;;11.20;10.30;;;27.50;84.90;;;;;;5043558;28;20528;-27
2021/07/04 02:44:47;;;;;;;10.03;9.23;;;27.40;86.30;;;;;;5045781;28;20446;-24
2021/07/04 02:47:26;;;;;;;9.97;9.17;;;27.40;86.90;;;;;;5064122;28;20449;-26
2021/07/04 02:50:00;;;;;;;10.07;9.20;;;27.30;87.60;;;;;;5063873;28;20484;-28
2021/07/04 02:52:31;;;;;;;11.03;9.93;;;27.30;88.20;;;;;;5063768;28;20534;-29
2021/07/04 02:55:05;;;;;;;10.10;9.30;;;27.20;88.30;;;;;;5064098;28;20442;-27
2021/07/04 02:57:36;;;;;;;10.90;10.03;;;27.20;88.40;;;;;;5063273;28;20951;-25
2021/07/04 03:00:09;;;;;;;10.00;9.20;;;27.10;88.00;;;;;;5052143;28;20435;-25
2021/07/04 03:02:40;;;;;;;9.83;9.03;;;27.10;88.30;;;;;;5044065;28;20478;-26
2021/07/04 03:05:18;;;;;;;9.00;8.40;;;27.00;89.30;;;;;;5044160;28;20536;-28
2021/07/04 03:07:49;;;;;;;9.77;8.97;;;26.90;88.70;;;;;;5070880;28;20473;-24
2021/07/04 03:10:23;;;;;;;10.13;9.23;;;26.90;89.10;;;;;;5083909;28;20456;-24
2021/07/04 03:12:55;;;;;;;10.13;9.23;;;26.80;90.10;;;;;;5084098;28;20450;-24
2021/07/04 03:15:29;;;;;;;9.60;8.83;;;26.70;89.70;;;;;;5084190;28;20518;-29
2021/07/04 03:18:05;;;;;;;9.70;8.80;;;26.70;89.70;;;;;;5084612;28;20436;-23
2021/07/04 03:20:36;;;;;;;9.53;8.63;;;26.70;90.10;;;;;;5083742;28;20495;-25
2021/07/04 03:23:09;;;;;;;9.30;8.57;;;26.60;90.20;;;;;;5084277;28;20444;-25
2021/07/04 03:25:51;;;;;;;10.07;9.20;;;26.50;90.30;;;;;;5083116;28;20478;-26
2021/07/04 03:28:22;;;;;;;10.10;9.20;;;26.50;90.20;;;;;;5083638;28;20472;-25
2021/07/04 03:30:53;;;;;;;9.17;8.47;;;26.40;90.30;;;;;;5083824;28;20458;-27
2021/07/04 03:33:24;;;;;;;8.93;8.20;;;26.40;90.10;;;;;;5084175;28;20433;-27
2021/07/04 03:35:55;;;;;;;9.73;9.03;;;26.30;90.70;;;;;;5065669;28;20945;-24
2021/07/04 03:38:26;;;;;;;9.40;8.70;;;26.20;90.80;;;;;;5063810;28;20448;-26
2021/07/04 03:40:58;;;;;;;9.00;8.40;;;26.20;90.90;;;;;;5062726;28;20523;-26
2021/07/04 03:43:29;;;;;;;9.40;8.70;;;26.10;90.90;;;;;;5063334;28;20488;-26
2021/07/04 03:46:01;;;;;;;10.40;9.60;;;26.00;91.30;;;;;;5063127;28;20483;-24
2021/07/04 03:48:32;;;;;;;9.33;8.37;;;25.90;91.70;;;;;;5063435;28;20432;-28
2021/07/04 03:51:03;;;;;;;9.30;8.57;;;25.90;91.10;;;;;;5062970;28;20949;-27
2021/07/04 03:53:35;;;;;;;9.47;8.57;;;25.90;90.90;;;;;;5063199;28;20515;-25
2021/07/04 03:56:08;;;;;;;8.40;7.73;;;25.70;90.80;;;;;;5062404;28;20799;-25
2021/07/04 03:58:40;;;;;;;8.57;7.77;;;25.60;90.20;;;;;;5063314;28;20452;-29
2021/07/04 04:01:18;;;;;;;8.53;7.73;;;25.60;89.70;;;;;;5062921;28;20472;-25
2021/07/04 04:03:49;;;;;;;8.53;7.70;;;25.50;89.70;;;;;;5063611;28;20556;-25
2021/07/04 04:06:20;;;;;;;8.37;7.63;;;25.30;90.00;;;;;;5062292;28;20452;-27
2021/07/04 04:08:51;;;;;;;7.67;6.97;;;25.20;90.20;;;;;;5063368;28;20560;-27
2021/07/04 04:11:26;;;;;;;8.70;7.90;;;25.10;90.30;;;;;;5062512;28;20586;-24
2021/07/04 04:13:57;;;;;;;8.27;7.67;;;25.00;90.60;;;;;;5063326;28;20444;-24
2021/07/04 04:16:28;;;;;;;8.13;7.50;;;24.90;91.00;;;;;;5062901;28;20513;-24
2021/07/04 04:18:59;;;;;;;7.60;6.83;;;24.80;91.40;;;;;;5063647;28;20437;-29
2021/07/04 04:21:30;;;;;;;8.90;8.13;;;24.60;91.60;;;;;;5062817;28;20484;-24
2021/07/04 04:24:01;;;;;;;7.80;7.20;;;24.50;91.80;;;;;;5063066;28;20444;-23
2021/07/04 04:26:34;;;;;;;9.03;8.33;;;24.40;92.30;;;;;;5062162;28;20547;-24
2021/07/04 04:29:05;;;;;;;8.23;7.43;;;24.30;92.00;;;;;;5063180;28;20498;-26
2021/07/04 04:31:36;;;;;;;8.47;7.77;;;24.20;92.00;;;;;;5062867;28;20460;-25
2021/07/04 04:34:09;;;;;;;10.63;7.23;;;24.20;91.90;;;;;;5063238;28;20441;-26
2021/07/04 04:36:43;;;;;;;9.17;8.27;;;24.10;92.20;;;;;;5062173;28;20506;-22
2021/07/04 04:39:14;;;;;;;8.60;7.70;;;24.10;92.20;;;;;;5064522;28;20456;-24
2021/07/04 04:41:47;;;;;;;8.53;7.73;;;24.10;92.20;;;;;;5066052;28;20492;-26
2021/07/04 04:44:35;;;;;;;8.63;7.20;;;24.00;92.10;;;;;;5067087;28;20441;-26
2021/07/04 04:47:07;;;;;;;8.00;7.30;;;23.90;92.50;;;;;;5066245;28;20444;-27
2021/07/04 04:49:38;;;;;;;9.13;8.17;;;23.80;92.70;;;;;;5066991;28;20437;-25
2021/07/04 04:52:10;;;;;;;8.03;7.43;;;23.80;93.00;;;;;;5065985;28;20451;-25
2021/07/04 04:54:43;;;;;;;9.03;8.00;;;23.70;93.40;;;;;;5066975;28;20456;-26
2021/07/04 04:57:19;;;;;;;8.17;7.57;;;23.60;93.70;;;;;;5065483;28;20460;-27
2021/07/04 04:59:50;;;;;;;8.37;7.57;;;23.40;94.10;;;;;;5066609;28;20433;-24
2021/07/04 05:02:23;;;;;;;8.60;7.77;;;23.40;94.30;;;;;;5065898;28;20485;-25
2021/07/04 05:04:54;;;;;;;7.63;6.93;;;23.30;95.30;;;;;;5066951;28;20399;-25
2021/07/04 05:07:25;;;;;;;9.73;7.90;;;23.20;95.80;;;;;;5066111;28;20425;-25
2021/07/04 05:09:56;;;;;;;10.23;8.30;;;23.10;96.30;;;;;;5066543;28;20451;-27
2021/07/04 05:12:32;;;;;;;8.43;7.63;;;23.00;96.20;;;;;;5065636;28;20440;-25
2021/07/04 05:15:03;;;;;;;8.73;7.83;;;23.00;96.70;;;;;;5066472;28;20513;-26
2021/07/04 05:17:34;;;;;;;9.73;8.93;;;22.90;96.90;;;;;;5065579;28;20505;-27
2021/07/04 05:20:07;;;;;;;9.07;8.17;;;22.90;97.20;;;;;;5066799;28;20471;-24
2021/07/04 05:22:38;;;;;;;9.27;8.37;;;22.80;97.60;;;;;;5065776;28;20518;-24
2021/07/04 05:25:11;;;;;;;8.77;7.97;;;22.70;97.80;;;;;;5066253;28;20423;-24
2021/07/04 05:27:46;;;;;;;8.90;8.00;;;22.70;98.30;;;;;;5065197;28;20470;-25
2021/07/04 05:30:18;;;;;;;8.90;8.10;;;22.70;98.20;;;;;;5065849;28;20597;-27
2021/07/04 05:32:51;;;;;;;8.70;8.00;;;22.70;98.20;;;;;;5066072;28;20472;-22
2021/07/04 05:35:22;;;;;;;9.47;8.47;;;22.70;98.50;;;;;;5053343;28;20441;-28
2021/07/04 05:37:53;;;;;;;8.27;7.57;;;22.60;99.10;;;;;;5046104;28;20420;-23
2021/07/04 05:40:24;;;;;;;8.80;8.00;;;22.60;99.10;;;;;;5045526;28;20477;-25
2021/07/04 05:42:57;;;;;;;9.43;8.10;;;22.60;99.40;;;;;;5045715;28;20483;-23
2021/07/04 05:45:29;;;;;;;9.00;8.20;;;22.50;99.90;;;;;;5045349;28;20484;-25
2021/07/04 05:48:07;;;;;;;9.17;7.70;;;22.50;99.90;;;;;;5045648;28;20445;-24
2021/07/04 05:50:38;;;;;;;10.67;8.70;;;22.40;99.90;;;;;;5045107;28;20441;-23
2021/07/04 05:53:46;;;;;;;9.50;8.60;;;22.30;99.90;;;;;;5062948;28;20454;-27
2021/07/04 05:56:23;;;;;;;10.40;8.50;;;22.20;99.90;;;;;;5065003;28;20459;-23
2021/07/04 05:58:56;;;;;;;9.23;8.33;;;22.10;99.90;;;;;;5065386;28;20444;-25
2021/07/04 06:01:27;;;;;;;9.97;9.07;;;22.10;99.90;;;;;;5065274;28;20444;-27
2021/07/04 06:03:58;;;;;;;10.57;9.33;;;22.00;99.90;;;;;;5065439;28;20470;-29
2021/07/04 06:06:29;;;;;;;9.53;8.60;;;22.00;99.90;;;;;;5064627;28;20427;-27
2021/07/04 06:09:00;;;;;;;10.40;8.43;;;21.90;99.90;;;;;;5065503;28;20435;-24
2021/07/04 06:11:33;;;;;;;9.60;8.73;;;21.80;99.90;;;;;;5064659;28;20403;-25
2021/07/04 06:14:06;;;;;;;9.40;8.50;;;21.80;99.90;;;;;;5065181;28;20440;-27
2021/07/04 06:16:37;;;;;;;9.63;8.60;;;21.70;99.90;;;;;;5064540;28;20453;-25
2021/07/04 06:19:08;;;;;;;10.40;9.37;;;21.70;99.90;;;;;;5064885;28;20471;-24
2021/07/04 06:21:39;;;;;;;10.80;9.33;;;21.70;99.90;;;;;;5064571;28;20459;-22
2021/07/04 06:24:10;;;;;;;10.17;9.20;;;21.60;99.90;;;;;;5064942;28;20455;-28
2021/07/04 06:26:41;;;;;;;11.53;8.93;;;21.50;99.90;;;;;;5064247;28;20561;-25
2021/07/04 06:29:14;;;;;;;11.07;9.17;;;21.40;99.90;;;;;;5064997;28;20423;-24
2021/07/04 06:31:45;;;;;;;10.57;9.47;;;21.30;99.90;;;;;;5064592;28;20441;-23
2021/07/04 06:34:16;;;;;;;10.33;8.90;;;21.20;99.90;;;;;;5065053;28;20524;-23
2021/07/04 06:36:47;;;;;;;9.83;8.83;;;21.10;99.90;;;;;;5063913;28;20501;-26
2021/07/04 06:39:18;;;;;;;10.00;9.00;;;21.10;99.90;;;;;;5065027;28;20403;-23
2021/07/04 06:41:49;;;;;;;11.03;9.87;;;21.00;99.90;;;;;;5064014;28;20391;-25
2021/07/04 06:44:22;;;;;;;10.93;9.07;;;21.00;99.90;;;;;;5064708;28;20515;-28
2021/07/04 06:46:54;;;;;;;14.37;9.90;;;20.90;99.90;;;;;;5064277;28;20462;-30
2021/07/04 06:49:25;;;;;;;10.30;9.20;;;20.80;99.90;;;;;;5064592;28;20892;-24
2021/07/04 06:51:59;;;;;;;10.83;8.83;;;20.80;99.90;;;;;;5063723;28;20487;-24
2021/07/04 06:54:30;;;;;;;10.03;8.93;;;20.80;99.90;;;;;;5064490;28;20498;-23
2021/07/04 06:57:26;;;;;;;11.60;9.17;;;20.70;99.90;;;;;;5063364;28;20485;-24
2021/07/04 06:59:58;;;;;;;11.20;9.83;;;20.70;99.90;;;;;;5056947;28;20440;-23
2021/07/04 07:02:29;;;;;;;10.60;9.50;;;20.60;99.90;;;;;;5043123;28;20423;-27
2021/07/04 07:05:00;;;;;;;12.20;9.93;;;20.50;99.90;;;;;;5044225;28;20424;-23
2021/07/04 07:07:31;;;;;;;11.30;9.27;;;20.40;99.90;;;;;;5043364;28;20453;-26
2021/07/04 07:10:02;;;;;;;10.83;9.63;;;20.40;99.90;;;;;;5044523;28;20415;-23
2021/07/04 07:12:33;;;;;;;12.13;9.70;;;20.30;99.90;;;;;;5043526;28;20437;-25
2021/07/04 07:15:06;;;;;;;11.20;10.13;;;20.30;99.90;;;;;;5044441;28;20464;-23
2021/07/04 07:17:38;;;;;;;12.70;9.77;;;20.30;99.90;;;;;;5061421;28;20434;-26
2021/07/04 07:20:12;;;;;;;12.03;9.37;;;20.20;99.90;;;;;;5064248;28;20427;-24
2021/07/04 07:22:43;;;;;;;9.50;8.53;;;20.00;99.90;;;;;;5063135;28;20451;-24
2021/07/04 07:25:16;;;;;;;14.23;10.20;;;19.90;99.90;;;;;;5063823;28;20775;-24
2021/07/04 07:27:48;;;;;;;11.00;9.20;;;19.80;99.90;;;;;;5063279;28;20419;-29
2021/07/04 07:30:22;;;;;;;11.40;9.43;;;19.70;99.90;;;;;;5064022;28;20415;-22
2021/07/04 07:32:59;;;;;;;13.27;9.80;;;19.70;99.90;;;;;;5063631;28;20539;-25
2021/07/04 07:35:30;;;;;;;12.90;9.87;;;19.70;99.90;;;;;;5063400;28;20444;-26
2021/07/04 07:38:03;;;;;;;10.27;9.20;;;19.60;99.90;;;;;;5063490;28;20765;-26
2021/07/04 07:40:35;;;;;;;13.57;10.03;;;19.60;99.90;;;;;;5062949;28;20449;-27
2021/07/04 07:43:07;;;;;;;11.73;9.60;;;19.50;99.90;;;;;;5063324;28;20451;-25
2021/07/04 07:45:41;;;;;;;11.87;9.73;;;19.50;99.90;;;;;;5063545;28;20730;-24
2021/07/04 07:48:12;;;;;;;13.40;9.23;;;19.40;99.90;;;;;;5063292;28;20449;-24
2021/07/04 07:50:43;;;;;;;11.10;9.97;;;19.40;99.90;;;;;;5043311;28;21055;-25
2021/07/04 07:53:17;;;;;;;13.17;9.50;;;19.30;99.90;;;;;;5043425;28;20509;-23
2021/07/04 07:55:49;;;;;;;10.37;9.20;;;19.20;99.90;;;;;;5042801;28;20530;-24
2021/07/04 07:58:21;;;;;;;11.57;9.50;;;19.20;99.90;;;;;;5043174;28;20530;-26
2021/07/04 08:00:56;;;;;;;11.30;9.67;;;19.10;99.90;;;;;;5043713;28;20479;-23
2021/07/04 08:03:29;;;;;;;14.47;9.30;;;19.10;99.90;;;;;;5043327;28;20563;-26
2021/07/04 08:06:03;;;;;;;13.57;9.13;;;19.10;99.90;;;;;;5043063;28;20449;-26
2021/07/04 08:08:34;;;;;;;18.53;10.33;;;19.00;99.90;;;;;;5043120;28;20482;-25
2021/07/04 08:11:06;;;;;;;11.17;10.03;;;19.00;99.90;;;;;;5042791;28;20449;-25
2021/07/04 08:13:37;;;;;;;10.43;9.37;;;19.00;99.90;;;;;;5043317;28;20456;-24
2021/07/04 08:16:10;;;;;;;13.60;9.63;;;18.90;99.90;;;;;;5043453;28;20443;-23
2021/07/04 08:18:41;;;;;;;10.47;8.77;;;18.80;99.90;;;;;;5043133;28;20921;-25
2021/07/04 08:21:12;;;;;;;11.37;9.70;;;18.70;99.90;;;;;;5042847;28;20428;-24
2021/07/04 08:23:46;;;;;;;12.03;9.50;;;18.70;99.90;;;;;;5043392;28;20492;-29
2021/07/04 08:26:17;;;;;;;12.20;10.77;;;18.60;99.90;;;;;;5042570;28;20453;-25
2021/07/04 08:28:48;;;;;;;12.70;10.27;;;18.60;99.90;;;;;;5042898;28;20449;-23
2021/07/04 08:31:21;;;;;;;12.20;9.20;;;18.50;99.90;;;;;;5043313;28;20512;-23
2021/07/04 08:33:54;;;;;;;11.07;9.87;;;18.50;99.90;;;;;;5043206;28;20591;-26
2021/07/04 08:36:30;;;;;;;12.43;9.97;;;18.60;99.90;;;;;;5042715;28;20473;-22
2021/07/04 08:39:01;;;;;;;17.30;10.30;;;18.50;99.90;;;;;;5042923;28;20560;-23
2021/07/04 08:41:32;;;;;;;11.27;9.77;;;18.50;99.90;;;;;;5042329;28;20445;-24
2021/07/04 08:44:07;;;;;;;12.37;9.67;;;18.30;99.90;;;;;;5043174;28;20527;-23
2021/07/04 08:46:46;;;;;;;11.97;10.37;;;18.30;99.90;;;;;;5043152;28;20517;-24
2021/07/04 08:49:17;;;;;;;12.00;10.77;;;18.30;99.90;;;;;;5059781;28;20451;-23
2021/07/04 08:51:49;;;;;;;13.83;10.70;;;18.20;99.90;;;;;;5082325;28;20986;-23
2021/07/04 08:54:20;;;;;;;13.63;9.60;;;18.20;99.90;;;;;;5083237;28;20450;-24
2021/07/04 08:56:52;;;;;;;11.90;10.30;;;18.00;99.90;;;;;;5082095;28;20443;-22
2021/07/04 08:59:23;;;;;;;11.60;10.40;;;18.00;99.90;;;;;;5083081;28;20458;-24
2021/07/04 09:01:59;;;;;;;11.93;10.40;;;18.00;99.90;;;;;;5082364;28;20471;-23
2021/07/04 09:04:32;;;;;;;16.40;11.30;;;18.00;99.90;;;;;;5083347;28;20483;-24
2021/07/04 09:07:08;;;;;;;11.50;9.70;;;17.80;99.90;;;;;;5082686;28;20504;-26
2021/07/04 09:09:38;;;;;;;13.53;10.47;;;17.80;99.90;;;;;;5082882;28;20447;-23
2021/07/04 09:12:10;;;;;;;12.83;9.93;;;17.80;99.90;;;;;;5082118;28;20505;-26
2021/07/04 09:14:44;;;;;;;11.13;10.03;;;17.70;99.90;;;;;;5083292;28;20444;-25
2021/07/04 09:17:38;;;;;;;13.30;10.30;;;17.70;99.90;;;;;;5082805;28;20430;-25
2021/07/04 09:20:12;;;;;;;14.13;9.97;;;17.70;99.90;;;;;;5083082;28;20448;-23
2021/07/04 09:22:46;;;;;;;11.23;10.13;;;17.70;99.90;;;;;;5083118;28;20439;-23
2021/07/04 09:25:18;;;;;;;12.33;9.87;;;17.70;99.90;;;;;;5084485;28;20518;-24
2021/07/04 09:28:05;;;;;;;11.40;9.90;;;17.60;99.90;;;;;;5078630;28;20476;-26
2021/07/04 09:30:40;;;;;;;13.80;9.83;;;17.60;99.90;;;;;;5065952;28;20449;-24
2021/07/04 09:33:18;;;;;;;11.80;9.93;;;17.50;99.90;;;;;;5066753;28;20502;-28
2021/07/04 09:35:58;;;;;;;11.63;9.57;;;17.60;99.90;;;;;;5065998;28;20428;-23
2021/07/04 09:38:33;;;;;;;14.57;10.57;;;17.50;99.90;;;;;;5066550;28;20429;-23
2021/07/04 09:41:06;;;;;;;10.60;9.60;;;17.40;99.90;;;;;;5065519;28;20519;-25
2021/07/04 09:43:38;;;;;;;11.80;9.70;;;17.40;99.90;;;;;;5066431;28;20444;-24
2021/07/04 09:46:10;;;;;;;10.60;9.40;;;17.30;99.90;;;;;;5066127;28;20459;-24
2021/07/04 09:48:47;;;;;;;9.47;8.47;;;17.30;99.90;;;;;;5065966;28;20853;-23
2021/07/04 09:51:21;;;;;;;14.43;10.20;;;17.30;99.90;;;;;;5065587;28;20488;-25
2021/07/04 09:53:56;;;;;;;10.57;8.57;;;17.30;99.90;;;;;;5066107;28;20472;-23
2021/07/04 09:56:29;;;;;;;15.30;10.17;;;17.30;99.90;;;;;;5065292;28;20432;-23
2021/07/04 09:59:01;;;;;;;10.63;8.90;;;17.20;99.90;;;;;;5066160;28;20503;-25
2021/07/04 10:01:34;;;;;;;10.30;9.23;;;17.20;99.90;;;;;;5065524;28;20456;-23
2021/07/04 10:04:08;;;;;;;9.40;8.10;;;17.20;99.90;;;;;;5066005;28;21000;-24
2021/07/04 10:06:58;;;;;;;10.43;8.43;;;17.10;99.90;;;;;;5065266;28;20468;-23
2021/07/04 10:09:32;;;;;;;10.27;8.30;;;17.00;99.90;;;;;;5065812;28;20837;-23
2021/07/04 10:12:04;;;;;;;8.83;7.53;;;16.90;99.90;;;;;;5064984;28;20436;-25
2021/07/04 10:14:38;;;;;;;8.30;7.33;;;16.90;99.90;;;;;;5066138;28;20474;-23
2021/07/04 10:17:10;;;;;;;12.50;8.40;;;16.90;99.90;;;;;;5065684;28;20448;-24
2021/07/04 10:19:44;;;;;;;8.97;7.77;;;16.80;99.90;;;;;;5065897;28;21207;-24
2021/07/04 10:22:15;;;;;;;10.00;8.50;;;16.80;99.90;;;;;;5065041;28;20456;-24
2021/07/04 10:24:47;;;;;;;9.60;8.03;;;16.70;99.90;;;;;;5065798;28;20534;-23
2021/07/04 10:27:19;;;;;;;9.20;7.93;;;16.70;99.90;;;;;;5064888;28;20483;-24
2021/07/04 10:29:52;;;;;;;11.83;8.87;;;16.70;99.90;;;;;;5065549;28;20468;-28
2021/07/04 10:32:23;;;;;;;11.77;8.10;;;16.60;99.90;;;;;;5065373;28;20551;-24
2021/07/04 10:35:05;;;;;;;10.27;8.50;;;16.60;99.90;;;;;;5065515;28;20430;-25
2021/07/04 10:37:37;;;;;;;11.43;9.07;;;16.60;99.90;;;;;;5063919;28;20459;-24
2021/07/04 10:40:13;;;;;;;11.50;8.63;;;16.50;99.90;;;;;;5065071;28;20964;-23
2021/07/04 10:42:45;;;;;;;14.60;9.23;;;16.50;99.90;;;;;;5064816;28;20444;-22
2021/07/04 10:45:35;;;;;;;12.10;9.97;;;16.40;99.90;;;;;;5065386;28;20512;-24
2021/07/04 10:48:20;;;;;;;10.40;8.97;;;16.30;99.90;;;;;;5065048;28;20449;-24
2021/07/04 10:51:12;;;;;;;12.40;10.50;;;16.20;99.90;;;;;;5044546;28;20449;-24
2021/07/04 10:53:48;;;;;;;12.10;9.60;;;16.20;99.90;;;;;;5045089;28;20935;-23
2021/07/04 10:56:41;;;;;;;15.17;10.37;;;16.20;99.90;;;;;;5044189;28;20448;-23
2021/07/04 10:59:14;;;;;;;12.03;9.93;;;16.20;99.90;;;;;;5048577;28;20449;-25
2021/07/04 11:01:53;;;;;;;10.53;9.43;;;16.20;99.90;;;;;;5084133;28;20458;-23
2021/07/04 11:04:52;;;;;;;14.47;9.87;;;16.20;99.90;;;;;;5085102;28;20455;-26
2021/07/04 11:07:25;;;;;;;15.83;9.80;;;16.10;99.90;;;;;;5080099;28;20578;-24
2021/07/04 11:10:19;;;;;;;10.23;9.13;;;16.00;99.90;;;;;;5084820;28;20424;-24
2021/07/04 11:12:55;;;;;;;14.40;9.70;;;16.00;99.90;;;;;;5084374;28;20459;-23
2021/07/04 11:15:28;;;;;;;11.00;9.83;;;16.00;99.90;;;;;;5084482;28;20450;-23
2021/07/04 11:18:13;;;;;;;13.47;9.63;;;15.90;99.90;;;;;;5084156;28;20443;-24
2021/07/04 11:21:03;;;;;;;14.83;10.93;;;15.90;99.90;;;;;;5083708;28;20530;-22
2021/07/04 11:23:38;;;;;;;13.30;9.30;;;15.90;99.90;;;;;;5084302;28;20486;-22
2021/07/04 11:26:22;;;;;;;11.63;9.80;;;15.90;99.90;;;;;;5083266;28;20877;-23
2021/07/04 11:28:53;;;;;;;11.27;9.70;;;15.90;99.90;;;;;;5067803;28;20479;-24
2021/07/04 11:31:31;;;;;;;14.80;10.13;;;15.80;99.90;;;;;;5063563;28;20441;-22
2021/07/04 11:34:09;;;;;;;13.63;10.80;;;15.80;99.90;;;;;;5064101;28;20460;-24
2021/07/04 11:36:40;;;;;;;16.27;11.00;;;15.80;99.90;;;;;;5063659;28;20502;-23
2021/07/04 11:39:16;;;;;;;15.23;10.90;;;15.80;99.90;;;;;;5063890;28;20448;-24
2021/07/04 11:41:52;;;;;;;15.57;10.80;;;15.70;99.90;;;;;;5062839;28;20453;-23
2021/07/04 11:44:24;;;;;;;15.63;9.97;;;15.60;99.90;;;;;;5063849;28;20483;-23
2021/07/04 11:46:56;;;;;;;15.73;11.17;;;15.60;99.90;;;;;;5063500;28;20526;-23
2021/07/04 11:49:28;;;;;;;14.20;10.50;;;15.60;99.90;;;;;;5063441;28;20439;-25
2021/07/04 11:52:04;;;;;;;14.30;9.73;;;15.50;99.90;;;;;;5062982;28;20472;-23
2021/07/04 11:54:44;;;;;;;10.97;9.87;;;15.60;99.90;;;;;;5063914;28;20479;-28
2021/07/04 11:57:31;;;;;;;15.20;10.50;;;15.50;99.90;;;;;;5062867;28;20444;-23
2021/07/04 12:00:06;;;;;;;13.70;9.43;;;15.50;99.90;;;;;;5063593;28;20457;-23
2021/07/04 12:02:47;;;;;;;17.27;10.67;;;15.50;99.90;;;;;;5063243;28;20454;-22
2021/07/04 12:05:21;;;;;;;12.47;10.80;;;15.50;99.90;;;;;;5063377;28;20490;-23
2021/07/04 12:07:57;;;;;;;14.30;10.00;;;15.40;99.90;;;;;;5063525;28;20501;-23
2021/07/04 12:10:30;;;;;;;15.90;10.37;;;15.40;99.90;;;;;;5062680;28;20429;-23
2021/07/04 12:13:01;;;;;;;12.83;9.97;;;15.40;99.90;;;;;;5063544;28;20469;-22
2021/07/04 12:15:52;;;;;;;13.93;10.20;;;15.30;99.90;;;;;;5063055;28;20459;-23
2021/07/04 12:18:23;;;;;;;11.93;9.70;;;15.30;99.90;;;;;;5063072;28;20444;-25
2021/07/04 12:20:58;;;;;;;15.83;10.53;;;15.30;99.90;;;;;;5062482;28;20476;-24
2021/07/04 12:23:29;;;;;;;13.80;9.60;;;15.30;99.90;;;;;;5063210;28;20471;-22
2021/07/04 12:26:08;;;;;;;14.17;10.13;;;15.30;99.90;;;;;;5062396;28;20540;-22
2021/07/04 12:28:39;;;;;;;14.77;10.10;;;15.30;99.90;;;;;;5075736;28;20949;-28
2021/07/04 12:31:10;;;;;;;13.10;9.60;;;15.30;99.90;;;;;;5082664;28;20476;-23
2021/07/04 12:33:45;;;;;;;11.33;9.47;;;15.30;99.90;;;;;;5083362;28;20447;-22
2021/07/04 12:36:18;;;;;;;10.40;9.13;;;15.30;99.90;;;;;;5082849;28;20466;-25
2021/07/04 12:38:52;;;;;;;10.50;9.40;;;15.20;99.90;;;;;;5082899;28;20451;-23
2021/07/04 12:41:35;;;;;;;10.57;9.37;;;15.20;99.90;;;;;;5082159;28;20483;-23
2021/07/04 12:44:15;;;;;;;16.73;9.60;;;15.20;99.90;;;;;;5083287;28;20431;-25
2021/07/04 12:46:46;;;;;;;13.07;9.00;;;15.10;99.90;;;;;;5082851;28;20512;-22
2021/07/04 12:49:17;;;;;;;13.13;9.07;;;15.10;99.90;;;;;;5082860;28;20915;-23
2021/07/04 12:51:48;;;;;;;11.17;8.30;;;15.10;99.90;;;;;;5082169;28;20459;-23
2021/07/04 12:54:30;;;;;;;9.67;8.60;;;15.20;99.90;;;;;;5083191;28;20967;-23
2021/07/04 12:57:06;;;;;;;13.43;9.43;;;15.10;99.90;;;;;;5081889;28;20519;-23
2021/07/04 12:59:37;;;;;;;14.50;8.27;;;15.20;99.90;;;;;;5078106;28;20949;-22
2021/07/04 13:02:08;;;;;;;10.63;9.33;;;15.20;99.90;;;;;;5066439;28;20464;-23
2021/07/04 13:04:50;;;;;;;12.57;8.83;;;15.20;99.90;;;;;;5067223;28;20456;-22
2021/07/04 13:07:21;;;;;;;12.27;7.90;;;15.30;99.90;;;;;;5066215;28;20491;-24
2021/07/04 13:09:52;;;;;;;11.40;8.40;;;15.40;99.90;;;;;;5066620;28;20448;-23
2021/07/04 13:12:27;;;;;;;11.07;8.67;;;15.40;99.90;;;;;;5065451;28;20853;-23
2021/07/04 13:15:01;;;;;;;12.27;8.67;;;15.50;99.90;;;;;;5066635;28;20440;-23